createdAt,value
2024-04-18T00:01:01.943Z,100.00
2024-04-18T00:03:28.762Z,100.00
2024-04-18T00:05:55.508Z,100.00
2024-04-18T00:08:22.278Z,100.00
2024-04-18T00:10:53.259Z,100.00
2024-04-18T00:13:20.027Z,100.00
2024-04-18T00:15:46.694Z,100.00
2024-04-18T00:18:13.473Z,100.00
2024-04-18T00:20:40.114Z,100.00
2024-04-18T00:23:06.727Z,100.00
2024-04-18T00:25:36.475Z,100.00
2024-04-18T00:28:03.205Z,100.00
2024-04-18T00:30:29.871Z,100.00
2024-04-18T00:32:56.600Z,100.00
2024-04-18T00:35:23.265Z,100.00
2024-04-18T00:37:49.922Z,100.00
2024-04-18T00:40:16.740Z,100.00
2024-04-18T00:42:43.387Z,100.00
2024-04-18T00:45:10.390Z,100.00
2024-04-18T00:47:38.083Z,100.00
2024-04-18T00:50:08.376Z,100.00
2024-04-18T00:52:35.061Z,100.00
2024-04-18T00:55:04.383Z,100.00
2024-04-18T00:57:33.508Z,100.00
2024-04-18T01:00:00.864Z,100.00
2024-04-18T01:02:30.346Z,100.00
2024-04-18T01:04:58.535Z,100.00
2024-04-18T01:07:25.873Z,100.00
2024-04-18T01:09:52.598Z,100.00
2024-04-18T01:12:19.318Z,100.00
2024-04-18T01:14:46.014Z,100.00
2024-04-18T01:17:12.763Z,100.00
2024-04-18T01:19:40.002Z,100.00
2024-04-18T01:22:06.879Z,100.00
2024-04-18T01:24:34.079Z,100.00
2024-04-18T01:27:00.972Z,100.00
2024-04-18T01:29:28.304Z,100.00
2024-04-18T01:31:55.139Z,100.00
2024-04-18T01:34:22.023Z,100.00
2024-04-18T01:36:49.671Z,100.00
2024-04-18T01:39:16.855Z,100.00
2024-04-18T01:41:43.851Z,100.00
2024-04-18T01:44:11.672Z,100.00
2024-04-18T01:46:38.320Z,100.00
2024-04-18T01:49:05.018Z,100.00
2024-04-18T01:51:31.680Z,100.00
2024-04-18T01:53:58.406Z,100.00
2024-04-18T01:56:25.064Z,100.00
2024-04-18T01:58:51.822Z,100.00
2024-04-18T02:01:24.207Z,100.00
2024-04-18T02:03:51.166Z,100.00
2024-04-18T02:06:17.848Z,100.00
2024-04-18T02:08:44.548Z,100.00
2024-04-18T02:11:11.211Z,100.00
2024-04-18T02:13:37.968Z,100.00
2024-04-18T02:16:05.328Z,100.00
2024-04-18T02:18:32.039Z,100.00
2024-04-18T02:20:58.693Z,100.00
2024-04-18T02:23:25.350Z,100.00
2024-04-18T02:25:52.048Z,100.00
2024-04-18T02:28:18.752Z,100.00
2024-04-18T02:30:45.533Z,100.00
2024-04-18T02:33:17.040Z,100.00
2024-04-18T02:35:44.058Z,100.00
2024-04-18T02:38:11.799Z,100.00
2024-04-18T02:40:38.685Z,100.00
2024-04-18T02:43:05.312Z,100.00
2024-04-18T02:45:32.164Z,100.00
2024-04-18T02:47:58.889Z,100.00
2024-04-18T02:50:25.584Z,100.00
2024-04-18T02:52:52.325Z,100.00
2024-04-18T02:55:18.985Z,100.00
2024-04-18T02:57:45.909Z,100.00
2024-04-18T03:00:12.828Z,100.00
2024-04-18T03:02:39.994Z,100.00
2024-04-18T03:05:06.759Z,100.00
2024-04-18T03:07:33.422Z,100.00
2024-04-18T03:10:00.023Z,100.00
2024-04-18T03:12:27.301Z,100.00
2024-04-18T03:14:53.963Z,100.00
2024-04-18T03:17:20.659Z,100.00
2024-04-18T03:19:47.338Z,100.00
2024-04-18T03:22:14.185Z,100.00
2024-04-18T03:24:40.901Z,100.00
2024-04-18T03:27:07.559Z,100.00
2024-04-18T03:29:34.192Z,100.00
2024-04-18T03:32:03.401Z,100.00
2024-04-18T03:34:30.261Z,100.00
2024-04-18T03:36:59.946Z,100.00
2024-04-18T03:39:29.856Z,100.00
2024-04-18T03:41:56.562Z,100.00
2024-04-18T03:44:23.251Z,100.00
2024-04-18T03:46:49.944Z,100.00
2024-04-18T03:49:16.870Z,100.00
2024-04-18T03:51:43.561Z,100.00
2024-04-18T03:54:10.426Z,100.00
2024-04-18T03:56:37.110Z,100.00
2024-04-18T03:59:03.782Z,100.00
2024-04-18T04:01:31.120Z,100.00
2024-04-18T04:03:58.249Z,100.00
2024-04-18T04:06:25.252Z,100.00
2024-04-18T04:08:51.968Z,100.00
2024-04-18T04:11:19.610Z,100.00
2024-04-18T04:13:46.484Z,100.00
2024-04-18T04:16:13.140Z,100.00
2024-04-18T04:18:39.980Z,100.00
2024-04-18T04:21:09.076Z,100.00
2024-04-18T04:23:36.185Z,100.00
2024-04-18T04:26:02.960Z,100.00
2024-04-18T04:28:29.585Z,100.00
2024-04-18T04:30:56.238Z,100.00
2024-04-18T04:33:23.091Z,100.00
2024-04-18T04:35:49.759Z,100.00
2024-04-18T04:38:16.452Z,100.00
2024-04-18T04:40:43.123Z,100.00
2024-04-18T04:43:09.770Z,100.00
2024-04-18T04:45:36.459Z,100.00
2024-04-18T04:48:06.429Z,100.00
2024-04-18T04:50:33.217Z,100.00
2024-04-18T04:52:59.889Z,100.00
2024-04-18T04:55:26.506Z,100.00
2024-04-18T04:57:53.212Z,100.00
2024-04-18T05:00:20.005Z,100.00
2024-04-18T05:02:48.756Z,100.00
2024-04-18T05:05:16.540Z,100.00
2024-04-18T05:07:43.158Z,100.00
2024-04-18T05:10:09.854Z,100.00
2024-04-18T05:12:36.500Z,100.00
2024-04-18T05:15:03.440Z,100.00
2024-04-18T05:17:30.261Z,100.00
2024-04-18T05:19:56.913Z,100.00
2024-04-18T05:22:23.644Z,100.00
2024-04-18T05:24:50.286Z,100.00
2024-04-18T05:27:16.988Z,100.00
2024-04-18T05:30:02.356Z,100.00
2024-04-18T05:32:29.171Z,100.00
2024-04-18T05:34:55.982Z,100.00
2024-04-18T05:37:23.324Z,100.00
2024-04-18T05:39:50.610Z,100.00
2024-04-18T05:42:17.534Z,100.00
2024-04-18T05:44:44.309Z,100.00
2024-04-18T05:47:11.073Z,100.00
2024-04-18T05:49:37.852Z,100.00
2024-04-18T05:52:04.902Z,100.00
2024-04-18T05:54:32.725Z,100.00
2024-04-18T05:56:59.455Z,100.00
2024-04-18T05:59:26.143Z,100.00
2024-04-18T06:01:52.976Z,100.00
2024-04-18T06:04:19.809Z,100.00
2024-04-18T06:06:47.338Z,100.00
2024-04-18T06:09:14.052Z,100.00
2024-04-18T06:11:44.635Z,100.00
2024-04-18T06:14:11.450Z,100.00
2024-04-18T06:16:38.639Z,100.00
2024-04-18T06:19:05.392Z,100.00
2024-04-18T06:21:32.230Z,100.00
2024-04-18T06:23:58.952Z,100.00
2024-04-18T06:26:25.678Z,100.00
2024-04-18T06:28:52.682Z,100.00
2024-04-18T06:31:19.816Z,100.00
2024-04-18T06:33:47.619Z,100.00
2024-04-18T06:36:14.394Z,100.00
2024-04-18T06:38:41.239Z,100.00
2024-04-18T06:41:08.008Z,100.00
2024-04-18T06:43:34.787Z,100.00
2024-04-18T06:46:02.049Z,100.00
2024-04-18T06:48:28.946Z,100.00
2024-04-18T06:50:55.754Z,100.00
2024-04-18T06:53:22.600Z,100.00
2024-04-18T06:55:49.346Z,100.00
2024-04-18T06:58:16.091Z,100.00
2024-04-18T07:00:43.367Z,100.00
2024-04-18T07:03:13.272Z,100.00
2024-04-18T07:05:40.554Z,100.00
2024-04-18T07:08:07.379Z,100.00
2024-04-18T07:10:37.157Z,100.00
2024-04-18T07:13:04.432Z,100.00
2024-04-18T07:15:31.133Z,100.00
2024-04-18T07:17:58.601Z,100.00
2024-04-18T07:20:26.796Z,100.00
2024-04-18T07:22:54.509Z,100.00
2024-04-18T07:25:21.425Z,100.00
2024-04-18T07:27:49.646Z,100.00
2024-04-18T07:30:17.222Z,100.00
2024-04-18T07:32:44.604Z,100.00
2024-04-18T07:35:11.338Z,100.00
2024-04-18T07:37:38.081Z,100.00
2024-04-18T07:40:13.711Z,100.00
2024-04-18T07:42:40.455Z,100.00
2024-04-18T07:45:07.273Z,100.00
2024-04-18T07:47:34.177Z,100.00
2024-04-18T07:50:01.328Z,100.00
2024-04-18T07:52:28.172Z,100.00
2024-04-18T07:54:55.012Z,100.00
2024-04-18T07:57:22.189Z,100.00
2024-04-18T07:59:50.398Z,100.00
2024-04-18T08:02:20.255Z,100.00
2024-04-18T08:04:55.411Z,100.00
2024-04-18T08:07:29.067Z,100.00
2024-04-18T08:10:01.085Z,100.00
2024-04-18T08:12:34.769Z,100.00
2024-04-18T08:15:08.723Z,100.00
2024-04-18T08:17:40.465Z,100.00
2024-04-18T08:20:07.942Z,100.00
2024-04-18T08:22:35.454Z,100.00
2024-04-18T08:25:04.335Z,84.41
2024-04-18T08:27:31.175Z,73.85
2024-04-18T08:29:57.954Z,67.28
2024-04-18T08:32:24.905Z,60.54
2024-04-18T08:34:51.754Z,58.25
2024-04-18T08:37:18.525Z,63.39
2024-04-18T08:39:45.178Z,60.71
2024-04-18T08:42:13.835Z,56.53
2024-04-18T08:44:40.981Z,62.89
2024-04-18T08:47:10.277Z,66.23
2024-04-18T08:49:39.503Z,62.76
2024-04-18T08:52:07.902Z,58.82
2024-04-18T08:54:35.248Z,65.04
2024-04-18T08:57:05.764Z,55.49
2024-04-18T08:59:34.043Z,64.40
2024-04-18T09:02:01.757Z,64.14
2024-04-18T09:04:29.093Z,57.34
2024-04-18T09:06:55.814Z,53.78
2024-04-18T09:09:25.802Z,58.27
2024-04-18T09:11:52.582Z,52.26
2024-04-18T09:14:19.289Z,56.75
2024-04-18T09:16:46.189Z,54.55
2024-04-18T09:19:13.918Z,51.06
2024-04-18T09:21:41.274Z,55.23
2024-04-18T09:24:08.094Z,56.37
2024-04-18T09:26:34.902Z,63.65
2024-04-18T09:29:01.846Z,65.59
2024-04-18T09:31:37.709Z,67.39
2024-04-18T09:34:10.647Z,65.71
2024-04-18T09:36:41.241Z,63.68
2024-04-18T09:39:12.052Z,60.00
2024-04-18T09:41:44.386Z,59.23
2024-04-18T09:44:22.190Z,48.63
2024-04-18T09:46:51.902Z,52.94
2024-04-18T09:49:19.941Z,53.62
2024-04-18T09:51:48.220Z,51.26
2024-04-18T09:54:15.996Z,52.04
2024-04-18T09:56:44.240Z,55.80
2024-04-18T09:59:12.347Z,49.01
2024-04-18T10:01:41.467Z,51.90
2024-04-18T10:04:08.371Z,56.27
2024-04-18T10:06:37.908Z,50.32
2024-04-18T10:09:07.287Z,51.72
2024-04-18T10:11:35.197Z,55.95
2024-04-18T10:14:07.971Z,49.90
2024-04-18T10:16:49.780Z,50.73
2024-04-18T10:19:21.365Z,53.94
2024-04-18T10:24:36.039Z,53.67
2024-04-18T10:27:08.896Z,52.58
2024-04-18T10:29:36.044Z,54.06
2024-04-18T10:32:06.040Z,53.59
2024-04-18T10:34:34.181Z,58.35
2024-04-18T10:37:07.825Z,57.10
2024-04-18T10:39:41.460Z,58.95
2024-04-18T10:42:12.400Z,58.94
2024-04-18T10:44:39.361Z,58.48
2024-04-18T10:47:07.407Z,53.95
2024-04-18T10:49:39.517Z,55.92
2024-04-18T10:52:12.008Z,56.97
2024-04-18T10:54:39.005Z,54.47
2024-04-18T10:57:05.932Z,52.44
2024-04-18T10:59:32.720Z,54.80
2024-04-18T11:02:09.754Z,55.39
2024-04-18T11:04:36.562Z,57.13
2024-04-18T11:07:04.135Z,60.66
2024-04-18T11:09:32.471Z,58.05
2024-04-18T11:11:59.247Z,58.58
2024-04-18T11:14:26.924Z,60.63
2024-04-18T11:16:57.945Z,59.44
2024-04-18T11:19:25.057Z,60.95
2024-04-18T11:21:51.865Z,61.41
2024-04-18T11:24:18.828Z,60.49
2024-04-18T11:26:45.480Z,59.87
2024-04-18T11:29:12.119Z,62.17
2024-04-18T11:31:38.860Z,61.66
2024-04-18T11:34:05.625Z,62.27
2024-04-18T11:36:32.359Z,59.01
2024-04-18T11:39:01.842Z,60.29
2024-04-18T11:41:34.547Z,63.29
2024-04-18T11:44:02.767Z,60.59
2024-04-18T11:46:29.422Z,62.33
2024-04-18T11:48:56.299Z,59.31
2024-04-18T11:51:23.181Z,62.02
2024-04-18T11:53:49.822Z,62.19
2024-04-18T11:56:16.575Z,61.18
2024-04-18T11:58:43.604Z,57.65
2024-04-18T12:01:13.031Z,57.76
2024-04-18T12:03:41.501Z,58.00
2024-04-18T12:06:08.351Z,55.14
2024-04-18T12:08:35.074Z,52.97
2024-04-18T12:11:01.726Z,54.97
2024-04-18T12:13:29.225Z,51.18
2024-04-18T12:15:56.386Z,53.12
2024-04-18T12:18:23.209Z,54.40
2024-04-18T12:20:49.999Z,56.40
2024-04-18T12:23:16.648Z,59.11
2024-04-18T12:25:43.325Z,61.28
2024-04-18T12:28:09.944Z,62.69
2024-04-18T12:30:36.841Z,63.20
2024-04-18T12:33:03.753Z,62.61
2024-04-18T12:35:30.511Z,62.10
2024-04-18T12:37:58.417Z,61.74
2024-04-18T12:40:25.117Z,59.06
2024-04-18T12:42:52.027Z,59.95
2024-04-18T12:45:18.775Z,59.36
2024-04-18T12:47:45.575Z,59.46
2024-04-18T12:50:12.584Z,60.69
2024-04-18T12:52:39.309Z,54.75
2024-04-18T12:55:06.082Z,57.28
2024-04-18T12:57:32.747Z,59.13
2024-04-18T12:59:59.436Z,59.45
2024-04-18T13:02:26.071Z,60.75
2024-04-18T13:04:52.790Z,61.88
2024-04-18T13:07:20.642Z,64.97
2024-04-18T13:09:47.296Z,64.76
2024-04-18T13:12:14.090Z,64.91
2024-04-18T13:14:40.741Z,66.22
2024-04-18T13:17:07.389Z,65.96
2024-04-18T13:19:33.994Z,67.37
2024-04-18T13:22:01.074Z,69.35
2024-04-18T13:24:27.826Z,68.53
2024-04-18T13:26:55.094Z,68.93
2024-04-18T13:29:24.395Z,67.54
2024-04-18T13:31:52.534Z,69.03
2024-04-18T13:34:22.419Z,68.89
2024-04-18T13:36:49.568Z,67.71
2024-04-18T13:39:16.451Z,68.43
2024-04-18T13:41:46.759Z,69.52
2024-04-18T13:44:13.435Z,67.63
2024-04-18T13:46:40.157Z,65.96
2024-04-18T13:49:06.812Z,65.46
2024-04-18T13:51:33.482Z,64.62
2024-04-18T13:54:00.184Z,64.55
2024-04-18T13:56:26.994Z,59.73
2024-04-18T13:58:53.628Z,62.30
2024-04-18T14:01:20.329Z,60.46
2024-04-18T14:03:47.060Z,59.56
2024-04-18T14:06:13.740Z,59.71
2024-04-18T14:08:43.954Z,60.50
2024-04-18T14:11:10.652Z,60.51
2024-04-18T14:13:37.406Z,61.04
2024-04-18T14:16:27.194Z,59.68
2024-04-18T14:18:54.356Z,60.26
2024-04-18T14:21:23.978Z,62.55
2024-04-18T14:23:50.654Z,64.22
2024-04-18T14:26:17.289Z,66.59
2024-04-18T14:28:43.956Z,63.47
2024-04-18T14:31:10.582Z,64.62
2024-04-18T14:33:37.392Z,63.24
2024-04-18T14:36:04.500Z,63.16
2024-04-18T14:38:31.165Z,62.73
2024-04-18T14:41:05.952Z,63.07
2024-04-18T14:43:38.267Z,62.48
2024-04-18T14:46:05.115Z,62.74
2024-04-18T14:48:34.731Z,62.25
2024-04-18T14:51:01.633Z,62.30
2024-04-18T14:53:28.287Z,61.45
2024-04-18T14:55:54.988Z,64.78
2024-04-18T14:58:21.743Z,63.25
2024-04-18T15:00:54.148Z,62.50
2024-04-18T15:03:21.624Z,60.57
2024-04-18T15:05:59.909Z,61.07
2024-04-18T15:08:26.671Z,60.52
2024-04-18T15:10:53.428Z,61.48
2024-04-18T15:13:20.092Z,60.54
2024-04-18T15:15:46.861Z,58.96
2024-04-18T15:18:14.424Z,60.31
2024-04-18T15:20:41.798Z,58.61
2024-04-18T15:23:08.718Z,59.87
2024-04-18T15:25:35.349Z,60.21
2024-04-18T15:28:02.003Z,59.96
2024-04-18T15:30:28.759Z,59.96
2024-04-18T15:32:55.484Z,59.20
2024-04-18T15:35:22.257Z,59.93
2024-04-18T15:37:48.958Z,57.37
2024-04-18T15:40:17.815Z,55.02
2024-04-18T15:42:45.105Z,55.16
2024-04-18T15:45:11.962Z,55.22
2024-04-18T15:47:38.885Z,55.44
2024-04-18T15:50:05.996Z,54.25
2024-04-18T15:52:34.296Z,55.02
2024-04-18T15:55:12.215Z,55.02
2024-04-18T15:57:42.990Z,52.39
2024-04-18T16:00:11.158Z,56.34
2024-04-18T16:02:38.189Z,57.04
2024-04-18T16:05:05.418Z,57.97
2024-04-18T16:07:32.271Z,57.40
2024-04-18T16:09:59.970Z,57.75
2024-04-18T16:12:26.939Z,58.16
2024-04-18T16:14:53.781Z,58.86
2024-04-18T16:17:20.601Z,59.38
2024-04-18T16:19:49.629Z,59.19
2024-04-18T16:22:16.265Z,61.19
2024-04-18T16:24:42.944Z,61.14
2024-04-18T16:27:09.693Z,62.32
2024-04-18T16:29:36.473Z,61.98
2024-04-18T16:32:03.096Z,60.33
2024-04-18T16:34:29.753Z,61.62
2024-04-18T16:37:09.089Z,60.60
2024-04-18T16:39:39.983Z,59.37
2024-04-18T16:42:07.551Z,60.59
2024-04-18T16:44:34.289Z,59.90
2024-04-18T16:47:01.024Z,60.30
2024-04-18T16:49:27.780Z,60.93
2024-04-18T16:51:54.427Z,61.36
2024-04-18T16:54:21.167Z,61.09
2024-04-18T16:56:48.252Z,60.93
2024-04-18T16:59:14.997Z,60.86
2024-04-18T17:01:41.822Z,60.80
2024-04-18T17:04:08.653Z,61.25
2024-04-18T17:06:42.191Z,61.20
2024-04-18T17:09:14.584Z,63.68
2024-04-18T17:11:41.262Z,63.96
2024-04-18T17:14:07.930Z,63.40
2024-04-18T17:16:34.828Z,63.72
2024-04-18T17:19:01.635Z,64.00
2024-04-18T17:21:28.381Z,64.78
2024-04-18T17:23:56.056Z,64.22
2024-04-18T17:26:24.633Z,65.58
2024-04-18T17:28:52.458Z,64.24
2024-04-18T17:31:19.161Z,64.00
2024-04-18T17:33:45.908Z,66.50
2024-04-18T17:36:15.142Z,65.81
2024-04-18T17:38:43.456Z,68.15
2024-04-18T17:41:10.134Z,69.47
2024-04-18T17:43:36.820Z,69.09
2024-04-18T17:46:03.744Z,67.85
2024-04-18T17:48:30.684Z,68.16
2024-04-18T17:50:57.674Z,67.76
2024-04-18T17:53:24.316Z,69.31
2024-04-18T17:55:52.042Z,69.05
2024-04-18T17:58:20.809Z,70.39
2024-04-18T18:00:47.579Z,71.77
2024-04-18T18:03:14.442Z,70.75
2024-04-18T18:05:43.190Z,71.28
2024-04-18T18:08:09.883Z,72.52
2024-04-18T18:10:36.596Z,73.68
2024-04-18T18:13:03.757Z,75.22
2024-04-18T18:15:30.485Z,75.24
2024-04-18T18:17:57.792Z,75.78
2024-04-18T18:20:24.499Z,75.99
2024-04-18T18:22:51.720Z,77.46
2024-04-18T18:25:18.355Z,77.44
2024-04-18T18:27:45.038Z,77.89
2024-04-18T18:30:11.880Z,78.40
2024-04-18T18:32:38.654Z,79.17
2024-04-18T18:35:06.890Z,78.64
2024-04-18T18:37:33.585Z,78.51
2024-04-18T18:40:00.327Z,78.92
2024-04-18T18:42:27.043Z,78.20
2024-04-18T18:44:53.655Z,78.62
2024-04-18T18:47:20.493Z,78.91
2024-04-18T18:49:47.217Z,78.45
2024-04-18T18:52:13.895Z,77.50
2024-04-18T18:54:40.873Z,77.39
2024-04-18T18:57:08.605Z,76.96
2024-04-18T18:59:35.499Z,77.05
2024-04-18T19:02:02.214Z,76.86
2024-04-18T19:04:29.088Z,76.45
2024-04-18T19:06:55.943Z,76.82
2024-04-18T19:09:23.703Z,77.33
2024-04-18T19:11:51.107Z,77.23
2024-04-18T19:14:18.043Z,77.41
2024-04-18T19:16:44.813Z,78.62
2024-04-18T19:19:11.562Z,79.03
2024-04-18T19:21:38.259Z,78.82
2024-04-18T19:24:05.117Z,79.62
2024-04-18T19:26:32.493Z,79.75
2024-04-18T19:28:59.142Z,79.82
2024-04-18T19:31:26.038Z,79.90
2024-04-18T19:33:53.065Z,80.80
2024-04-18T19:36:20.630Z,81.60
2024-04-18T19:38:47.587Z,82.01
2024-04-18T19:41:14.331Z,82.77
2024-04-18T19:43:41.031Z,82.41
2024-04-18T19:46:07.749Z,83.16
2024-04-18T19:48:34.679Z,83.07
2024-04-18T19:51:01.432Z,83.04
2024-04-18T19:53:28.094Z,82.87
2024-04-18T19:55:58.480Z,83.09
2024-04-18T19:58:25.239Z,82.19
2024-04-18T20:00:52.168Z,82.38
2024-04-18T20:03:19.442Z,83.33
2024-04-18T20:05:46.336Z,82.55
2024-04-18T20:08:13.127Z,81.84
2024-04-18T20:10:39.864Z,81.96
2024-04-18T20:13:06.614Z,82.53
2024-04-18T20:15:33.557Z,83.18
2024-04-18T20:18:01.101Z,82.38
2024-04-18T20:20:27.967Z,83.51
2024-04-18T20:22:55.205Z,83.85
2024-04-18T20:25:21.992Z,84.89
2024-04-18T20:27:49.529Z,84.59
2024-04-18T20:30:16.642Z,84.43
2024-04-18T20:32:43.801Z,84.99
2024-04-18T20:35:11.257Z,85.20
2024-04-18T20:37:38.174Z,85.12
2024-04-18T20:40:05.326Z,84.80
2024-04-18T20:42:31.988Z,86.54
2024-04-18T20:44:59.295Z,87.08
2024-04-18T20:47:26.584Z,87.70
2024-04-18T20:49:53.324Z,88.70
2024-04-18T20:52:19.989Z,88.45
2024-04-18T20:54:46.748Z,88.35
2024-04-18T20:57:13.467Z,88.60
2024-04-18T20:59:42.449Z,88.25
2024-04-18T21:02:10.155Z,88.17
2024-04-18T21:04:37.129Z,88.24
2024-04-18T21:07:03.845Z,88.69
2024-04-18T21:09:30.542Z,88.56
2024-04-18T21:11:57.259Z,88.53
2024-04-18T21:14:23.852Z,87.95
2024-04-18T21:16:50.469Z,88.07
2024-04-18T21:19:21.014Z,87.64
2024-04-18T21:21:48.715Z,88.18
2024-04-18T21:24:15.561Z,88.29
2024-04-18T21:26:42.449Z,88.04
2024-04-18T21:29:09.119Z,87.53
2024-04-18T21:31:35.988Z,88.18
2024-04-18T21:34:02.822Z,88.32
2024-04-18T21:36:29.598Z,88.31
2024-04-18T21:39:00.269Z,88.53
2024-04-18T21:41:28.767Z,88.58
2024-04-18T21:43:56.190Z,89.05
2024-04-18T21:46:22.957Z,88.74
2024-04-18T21:48:49.897Z,88.48
2024-04-18T21:51:16.720Z,88.40
2024-04-18T21:53:43.372Z,88.37
2024-04-18T21:56:10.535Z,88.75
2024-04-18T21:58:37.464Z,88.62
2024-04-18T22:01:04.483Z,89.21
2024-04-18T22:03:31.399Z,89.94
2024-04-18T22:05:59.086Z,90.43
2024-04-18T22:08:26.030Z,91.07
2024-04-18T22:10:52.784Z,91.18
2024-04-18T22:13:19.968Z,91.94
2024-04-18T22:15:46.692Z,91.59
2024-04-18T22:18:13.475Z,91.99
2024-04-18T22:20:40.346Z,93.06
2024-04-18T22:23:07.373Z,94.22
2024-04-18T22:25:34.142Z,95.06
2024-04-18T22:28:00.924Z,97.29
2024-04-18T22:30:27.674Z,98.83
2024-04-18T22:32:54.615Z,100.00
2024-04-18T22:35:21.338Z,100.00
2024-04-18T22:37:48.055Z,100.00
2024-04-18T22:40:14.799Z,100.00
2024-04-18T22:42:41.732Z,100.00
2024-04-18T22:45:08.820Z,100.00
2024-04-18T22:47:35.610Z,100.00
2024-04-18T22:50:02.362Z,100.00
2024-04-18T22:52:29.221Z,100.00
2024-04-18T22:54:56.002Z,100.00
2024-04-18T22:57:22.834Z,100.00
2024-04-18T22:59:49.922Z,100.00
2024-04-18T23:02:16.970Z,100.00
2024-04-18T23:04:43.863Z,100.00
2024-04-18T23:07:10.792Z,100.00
2024-04-18T23:09:37.693Z,100.00
2024-04-18T23:12:04.721Z,100.00
2024-04-18T23:14:31.393Z,100.00
2024-04-18T23:16:57.999Z,100.00
2024-04-18T23:19:24.645Z,100.00
2024-04-18T23:21:51.279Z,100.00
2024-04-18T23:24:17.933Z,100.00
2024-04-18T23:26:44.647Z,100.00
2024-04-18T23:29:11.355Z,100.00
2024-04-18T23:31:38.047Z,100.00
2024-04-18T23:34:04.771Z,100.00
2024-04-18T23:36:31.488Z,100.00
2024-04-18T23:38:58.165Z,100.00
2024-04-18T23:41:24.768Z,100.00
2024-04-18T23:43:51.431Z,100.00
2024-04-18T23:46:18.175Z,100.00
2024-04-18T23:48:44.980Z,100.00
2024-04-18T23:51:11.760Z,100.00
2024-04-18T23:53:38.419Z,100.00
2024-04-18T23:56:05.431Z,100.00
2024-04-18T23:58:32.204Z,100.00
